Time;durP1;ratioP1;P1;durP2;ratioP2;P2;SDS_P1;SDS_P2;PMS_P1;PMS_P2;Temp;Humidity;BMP_temperature;BMP_pressure;BME280_temperature;BME280_humidity;BME280_pressure;Samples;Min_cycle;Max_cycle;Signal;HPM_P1;HPM_P2
2023/01/31 00:01:23;;;;;;;3.33;1.47;;;2.20;99.90;;;;;;4801544;29;20138;-89
2023/01/31 00:03:58;;;;;;;3.60;0.95;;;2.20;99.90;;;;;;4801944;29;20027;-88
2023/01/31 06:57:48;;;;;;;3.30;1.23;;;-0.10;99.90;;;;;;4798568;29;20046;-89
2023/01/31 07:00:17;;;;;;;2.90;1.00;;;-0.20;99.90;;;;;;4820765;29;20064;-90
2023/01/31 07:02:48;;;;;;;3.53;1.17;;;-0.20;99.90;;;;;;4807612;29;20313;-90
2023/01/31 07:07:55;;;;;;;5.67;1.13;;;0.10;99.90;;;;;;4877161;23;20430;-90
2023/01/31 07:10:40;;;;;;;;;;;;;;;;;;;;;
2023/01/31 07:13:06;;;;;;;4.17;1.50;;;0.00;99.90;;;;;;4842401;29;20036;-91
2023/01/31 07:15:41;;;;;;;4.47;1.30;;;0.10;99.90;;;;;;4830200;29;20109;-91
2023/01/31 07:18:18;;;;;;;4.67;1.83;;;0.10;99.90;;;;;;4830376;29;20040;-91
2023/01/31 07:20:51;;;;;;;6.13;1.80;;;0.10;99.90;;;;;;4826234;29;20023;-91
2023/01/31 07:23:17;;;;;;;4.57;1.20;;;0.20;99.90;;;;;;4825295;29;20019;-90
2023/01/31 07:25:43;;;;;;;4.50;1.40;;;0.50;99.90;;;;;;4834820;29;20125;-89
2023/01/31 07:28:14;;;;;;;3.67;1.10;;;0.40;99.90;;;;;;4825738;29;20033;-92
2023/01/31 07:30:42;;;;;;;3.27;1.17;;;0.40;99.90;;;;;;4824441;29;20079;-91
2023/01/31 07:33:18;;;;;;;6.40;1.60;;;0.30;99.90;;;;;;4824655;29;20292;-90
2023/01/31 07:36:14;;;;;;;2.73;1.00;;;0.40;99.90;;;;;;4825501;29;20037;-91
2023/01/31 07:38:43;;;;;;;6.20;1.27;;;0.50;99.90;;;;;;4801731;29;20129;-90
2023/01/31 07:41:18;;;;;;;4.87;1.43;;;0.50;99.90;;;;;;4819135;29;20106;-90
2023/01/31 07:43:47;;;;;;;9.87;1.47;;;0.60;99.90;;;;;;4826011;29;20133;-91
2023/01/31 07:46:28;;;;;;;4.87;1.20;;;0.60;99.90;;;;;;4815300;29;20038;-91
2023/01/31 07:49:06;;;;;;;6.47;1.20;;;0.70;99.90;;;;;;4824260;29;20104;-91
2023/01/31 07:51:57;;;;;;;6.70;1.70;;;0.70;99.90;;;;;;4826056;29;20038;-90
2023/01/31 07:54:40;;;;;;;6.73;1.13;;;0.90;99.90;;;;;;4824955;29;20125;-90
2023/01/31 07:57:06;;;;;;;;;;;0.70;99.90;;;;;;4824982;29;20026;-91
2023/01/31 07:59:31;;;;;;;2.03;0.70;;;0.90;99.90;;;;;;4819488;29;19922;-88
2023/01/31 08:04:41;;;;;;;5.57;1.33;;;1.10;99.90;;;;;;4833270;29;20044;-88
2023/01/31 08:07:15;;;;;;;7.20;1.57;;;1.10;99.90;;;;;;4834269;29;20398;-86
2023/01/31 08:09:42;;;;;;;8.73;1.53;;;1.00;99.90;;;;;;4823646;29;20066;-88
2023/01/31 08:12:10;;;;;;;9.23;1.60;;;1.20;99.90;;;;;;4825135;29;20018;-88
2023/01/31 08:14:45;;;;;;;8.17;1.30;;;1.20;99.90;;;;;;4826352;29;20033;-89
2023/01/31 08:17:17;;;;;;;4.07;1.37;;;1.10;99.90;;;;;;4825051;29;20026;-88
2023/01/31 08:19:43;;;;;;;7.95;1.33;;;1.30;99.90;;;;;;4825784;29;20035;-88
2023/01/31 08:22:09;;;;;;;4.00;1.10;;;1.20;99.90;;;;;;4830161;29;20061;-88
2023/01/31 08:24:40;;;;;;;4.27;0.77;;;1.30;99.90;;;;;;4823783;29;20034;-89
2023/01/31 08:27:06;;;;;;;5.00;1.57;;;1.40;99.90;;;;;;4826016;29;20030;-88
2023/01/31 08:29:31;;;;;;;6.60;1.83;;;1.60;99.90;;;;;;4828176;29;20030;-88
2023/01/31 08:31:57;;;;;;;5.93;1.73;;;1.50;99.90;;;;;;4821595;29;20037;-88
2023/01/31 08:34:23;;;;;;;4.40;1.60;;;1.60;99.90;;;;;;4821383;29;20090;-88
2023/01/31 08:36:48;;;;;;;3.90;1.33;;;1.60;99.90;;;;;;4822980;29;20033;-88
2023/01/31 08:39:14;;;;;;;4.03;1.40;;;1.80;99.90;;;;;;4825362;29;20090;-87
2023/01/31 08:41:40;;;;;;;7.97;1.67;;;1.80;99.90;;;;;;4818396;29;20476;-89
2023/01/31 08:44:18;;;;;;;3.17;1.07;;;2.90;99.90;;;;;;4823716;29;20022;-88
2023/01/31 08:46:46;;;;;;;5.00;1.40;;;1.80;99.90;;;;;;4822380;29;20566;-89
2023/01/31 08:49:14;;;;;;;7.33;2.07;;;;;;;;;;4817652;29;20042;-88
2023/01/31 08:51:39;;;;;;;4.77;1.50;;;2.20;99.90;;;;;;4835969;29;20488;-88
2023/01/31 08:54:05;;;;;;;4.23;1.30;;;2.30;99.90;;;;;;4821756;29;20037;-89
2023/01/31 08:56:31;;;;;;;6.00;1.67;;;2.20;99.90;;;;;;4821557;29;20408;-89
2023/01/31 08:59:02;;;;;;;4.90;1.60;;;2.20;99.90;;;;;;4823950;29;20093;-89
2023/01/31 09:02:01;;;;;;;4.20;1.03;;;2.00;99.90;;;;;;4823917;29;20022;-88
2023/01/31 09:04:33;;;;;;;4.60;1.40;;;2.10;99.90;;;;;;4822885;29;20071;-88
2023/01/31 09:07:01;;;;;;;2.78;0.85;;;2.20;99.90;;;;;;4821096;29;20034;-88
2023/01/31 09:09:30;;;;;;;4.97;1.00;;;2.20;99.90;;;;;;4826174;29;20519;-87
2023/01/31 09:11:58;;;;;;;7.47;1.70;;;2.60;99.90;;;;;;4830382;29;20133;-88
2023/01/31 09:14:30;;;;;;;3.57;1.47;;;2.20;99.90;;;;;;4840434;29;20035;-88
2023/01/31 09:17:06;;;;;;;5.07;1.08;;;2.30;99.90;;;;;;4828765;29;20046;-87
2023/01/31 09:22:23;;;;;;;2.27;0.80;;;2.40;99.90;;;;;;4825707;29;20034;-88
2023/01/31 09:24:57;;;;;;;6.37;1.20;;;2.50;99.90;;;;;;4826291;29;20042;-88
2023/01/31 09:27:37;;;;;;;4.50;1.10;;;2.50;99.90;;;;;;4824609;29;20086;-88
2023/01/31 09:30:30;;;;;;;;;;;;;;;;;;;;;
2023/01/31 09:33:01;;;;;;;4.17;0.90;;;3.70;99.90;;;;;;4830368;29;20391;-88
2023/01/31 09:35:30;;;;;;;2.40;0.90;;;3.20;99.90;;;;;;4823278;29;20045;-88
2023/01/31 09:38:01;;;;;;;11.30;1.50;;;3.10;99.90;;;;;;4823418;29;20530;-88
2023/01/31 09:40:40;;;;;;;5.60;0.90;;;2.40;99.90;;;;;;4826289;29;20019;-88
2023/01/31 09:43:11;;;;;;;1.30;0.50;;;3.80;99.90;;;;;;4836623;29;20032;-88
2023/01/31 09:46:07;;;;;;;4.65;1.58;;;3.60;99.90;;;;;;4828485;29;20038;-88
2023/01/31 09:48:57;;;;;;;2.57;0.87;;;2.90;99.90;;;;;;4826369;29;20030;-89
2023/01/31 09:51:39;;;;;;;3.60;0.90;;;3.30;99.90;;;;;;4830809;29;20034;-88
2023/01/31 09:54:33;;;;;;;3.73;0.70;;;3.20;99.90;;;;;;4841945;29;20023;-88
2023/01/31 09:57:14;;;;;;;6.27;1.10;;;3.30;99.90;;;;;;4830015;29;20059;-88
2023/01/31 10:00:30;;;;;;;4.77;1.13;;;3.70;99.90;;;;;;4836722;29;20037;-88
2023/01/31 10:03:49;;;;;;;4.73;1.10;;;3.40;99.90;;;;;;4820793;29;20037;-89
2023/01/31 10:06:43;;;;;;;5.47;1.27;;;3.40;99.90;;;;;;4783390;29;20115;-89
2023/01/31 10:10:13;;;;;;;3.50;1.00;;;3.40;99.90;;;;;;4774647;29;20516;-89
2023/01/31 10:13:34;;;;;;;;;;;;;;;;;;;;;
2023/01/31 10:16:34;;;;;;;2.50;0.80;;;3.40;99.90;;;;;;4821097;29;20052;-88
2023/01/31 10:23:03;;;;;;;1.30;0.60;;;3.40;99.90;;;;;;4750203;30;20028;-89
2023/01/31 10:26:47;;;;;;;;;;;;;;;;;;;;;
2023/01/31 10:29:33;;;;;;;3.93;0.87;;;3.30;99.90;;;;;;4816622;29;20512;-89
2023/01/31 10:32:37;;;;;;;6.30;1.00;;;3.60;99.90;;;;;;4827551;29;20496;-88
2023/01/31 10:35:56;;;;;;;;;;;;;;;;;;;;;
2023/01/31 10:42:24;;;;;;;6.27;0.80;;;3.50;99.90;;;;;;4810298;29;20103;-88
2023/01/31 10:45:32;;;;;;;5.30;0.70;;;3.60;99.90;;;;;;4837619;29;20149;-89
2023/01/31 10:49:02;;;;;;;4.87;0.80;;;3.80;99.90;;;;;;4825351;29;20109;-89
2023/01/31 10:51:52;;;;;;;2.20;0.73;;;3.70;99.90;;;;;;4833621;29;20132;-88
2023/01/31 10:55:20;;;;;;;4.87;1.23;;;3.60;99.90;;;;;;4839155;29;20412;-89
2023/01/31 10:57:53;;;;;;;3.77;0.90;;;3.60;99.90;;;;;;4834852;29;20026;-88
2023/01/31 11:00:55;;;;;;;3.57;0.87;;;3.70;99.90;;;;;;4834469;29;20034;-89
2023/01/31 11:03:47;;;;;;;4.13;0.90;;;3.80;99.90;;;;;;4822654;29;20042;-89
2023/01/31 11:06:33;;;;;;;5.13;0.70;;;3.70;99.90;;;;;;4824922;29;20026;-89
2023/01/31 11:09:02;;;;;;;3.30;1.20;;;3.70;99.90;;;;;;4825237;29;20125;-89
2023/01/31 11:11:39;;;;;;;2.90;0.73;;;3.70;99.90;;;;;;4830068;29;20037;-89
2023/01/31 11:14:31;;;;;;;2.03;0.50;;;3.80;99.90;;;;;;4822052;29;20133;-90
2023/01/31 11:17:16;;;;;;;2.10;0.80;;;3.80;99.90;;;;;;4813255;29;20072;-89
2023/01/31 11:20:21;;;;;;;4.53;0.80;;;3.60;99.90;;;;;;4824864;29;20049;-89
2023/01/31 11:22:52;;;;;;;3.23;1.07;;;4.00;99.90;;;;;;4819002;29;20041;-89
2023/01/31 11:25:42;;;;;;;2.27;0.57;;;4.00;99.90;;;;;;4820953;29;20026;-89
2023/01/31 11:28:41;;;;;;;5.60;0.80;;;4.20;99.90;;;;;;4820104;29;20288;-88
2023/01/31 11:31:41;;;;;;;7.30;1.03;;;4.30;99.90;;;;;;4823066;29;20033;-89
2023/01/31 11:35:00;;;;;;;5.43;0.70;;;4.90;99.90;;;;;;4834367;29;20066;-88
2023/01/31 11:37:47;;;;;;;5.13;0.57;;;4.40;99.90;;;;;;4813024;29;20507;-88
2023/01/31 11:40:18;;;;;;;3.27;0.70;;;4.30;99.90;;;;;;4823474;29;20125;-88
2023/01/31 11:43:18;;;;;;;3.70;0.97;;;4.10;99.90;;;;;;4832680;29;20393;-88
2023/01/31 11:46:21;;;;;;;2.53;0.60;;;5.20;99.90;;;;;;4834942;29;20279;-89
2023/01/31 11:48:50;;;;;;;1.88;0.60;;;4.10;99.90;;;;;;4827056;29;20087;-88
2023/01/31 11:55:22;;;;;;;2.13;0.50;;;4.10;99.90;;;;;;4817575;29;20065;-89
2023/01/31 11:58:16;;;;;;;3.30;0.60;;;4.20;99.90;;;;;;4824388;29;20055;-87
2023/01/31 12:01:24;;;;;;;1.67;0.40;;;4.20;99.90;;;;;;4824614;29;20026;-88
2023/01/31 12:04:14;;;;;;;5.43;0.60;;;4.30;99.90;;;;;;4828488;29;20034;-89
2023/01/31 12:07:07;;;;;;;5.47;0.63;;;4.30;99.90;;;;;;4820779;29;20404;-89
2023/01/31 12:09:44;;;;;;;;;;;4.30;99.90;;;;;;4818510;29;20671;-88
2023/01/31 12:12:34;;;;;;;1.03;0.40;;;4.50;99.90;;;;;;4822366;29;19917;-89
2023/01/31 12:15:19;;;;;;;2.73;0.40;;;4.50;99.90;;;;;;4821127;29;20417;-88
2023/01/31 12:17:55;;;;;;;2.07;0.40;;;4.60;99.90;;;;;;4824765;29;20407;-88
2023/01/31 12:21:18;;;;;;;2.33;0.50;;;4.60;99.90;;;;;;4819867;29;20408;-88
2023/01/31 12:24:13;;;;;;;;;;;4.60;99.90;;;;;;4795245;29;20046;-89
2023/01/31 12:27:24;;;;;;;2.47;0.33;;;4.60;99.90;;;;;;4820513;29;20251;-88
2023/01/31 12:30:27;;;;;;;0.83;0.30;;;4.60;99.90;;;;;;4835169;29;20030;-89
2023/01/31 12:33:26;;;;;;;1.50;0.20;;;4.40;99.90;;;;;;4816234;29;20050;-88
2023/01/31 12:36:32;;;;;;;4.23;0.67;;;4.40;99.90;;;;;;4821829;29;20047;-88
2023/01/31 12:39:16;;;;;;;1.80;0.47;;;4.30;99.90;;;;;;4835043;29;20091;-88
2023/01/31 12:42:29;;;;;;;3.03;0.40;;;4.60;99.90;;;;;;4830291;29;20028;-88
2023/01/31 12:45:39;;;;;;;3.33;0.40;;;4.80;99.90;;;;;;4839809;29;20115;-88
2023/01/31 12:48:35;;;;;;;2.53;0.40;;;4.80;99.90;;;;;;4839868;29;20030;-88
2023/01/31 12:51:09;;;;;;;1.70;0.47;;;4.80;99.90;;;;;;4837648;29;20121;-88
2023/01/31 12:53:55;;;;;;;0.87;0.30;;;4.80;99.90;;;;;;4824138;29;20450;-88
2023/01/31 12:56:38;;;;;;;2.17;0.40;;;4.80;99.90;;;;;;4837374;29;20051;-88
2023/01/31 12:59:27;;;;;;;3.37;0.70;;;4.70;99.90;;;;;;4826671;29;20033;-88
2023/01/31 13:02:27;;;;;;;3.57;0.43;;;4.50;99.90;;;;;;4819057;29;20041;-87
2023/01/31 13:05:26;;;;;;;3.63;0.80;;;4.60;99.90;;;;;;4829359;29;20037;-88
2023/01/31 13:08:00;;;;;;;6.27;0.77;;;4.50;99.90;;;;;;4827564;29;20155;-88
2023/01/31 13:10:36;;;;;;;1.30;0.40;;;4.50;99.90;;;;;;4825228;29;20218;-88
2023/01/31 13:13:04;;;;;;;3.87;0.67;;;4.40;99.90;;;;;;4827598;29;20075;-88
2023/01/31 13:15:51;;;;;;;4.57;0.63;;;4.40;99.90;;;;;;4832770;29;20580;-87
2023/01/31 13:18:18;;;;;;;2.10;0.67;;;4.40;99.90;;;;;;4825368;29;20037;-87
2023/01/31 13:21:00;;;;;;;2.23;0.60;;;4.30;99.90;;;;;;4826288;29;20037;-87
2023/01/31 13:23:38;;;;;;;2.28;0.57;;;4.10;99.90;;;;;;4840851;29;20037;-87
2023/01/31 13:26:33;;;;;;;2.53;0.50;;;4.10;99.90;;;;;;4828279;29;20086;-87
2023/01/31 13:29:25;;;;;;;3.97;0.50;;;4.70;99.90;;;;;;4820186;29;20408;-88
2023/01/31 13:32:00;;;;;;;;;;;4.00;99.90;;;;;;4821151;29;20022;-87
2023/01/31 13:34:39;;;;;;;4.53;0.60;;;4.00;99.90;;;;;;4835816;29;19924;-88
2023/01/31 13:37:25;;;;;;;4.77;0.87;;;4.00;99.90;;;;;;4823931;29;20030;-88
2023/01/31 13:40:14;;;;;;;6.90;0.80;;;4.30;99.90;;;;;;4835480;29;20509;-89
2023/01/31 13:42:40;;;;;;;2.80;1.27;;;3.20;99.90;;;;;;4820879;29;20457;-89
2023/01/31 13:45:10;;;;;;;3.67;1.23;;;3.80;99.90;;;;;;4824120;29;20042;-89
2023/01/31 13:48:07;;;;;;;8.20;0.83;;;3.80;99.90;;;;;;4827139;29;20026;-88
2023/01/31 13:50:43;;;;;;;3.33;0.90;;;3.70;99.90;;;;;;4826269;29;20046;-88
2023/01/31 13:53:35;;;;;;;3.73;0.67;;;3.70;99.90;;;;;;4822154;29;20497;-89
2023/01/31 13:56:03;;;;;;;4.07;0.90;;;3.70;99.90;;;;;;4826944;29;20083;-89
2023/01/31 13:58:32;;;;;;;2.50;0.60;;;3.70;99.90;;;;;;4828374;29;20034;-88
2023/01/31 14:01:03;;;;;;;6.80;0.83;;;3.60;99.90;;;;;;4829667;29;20155;-89
2023/01/31 14:03:29;;;;;;;2.73;0.50;;;3.60;99.90;;;;;;4823196;29;20030;-88
2023/01/31 14:06:00;;;;;;;4.03;0.73;;;3.60;99.90;;;;;;4818712;29;20027;-88
2023/01/31 14:08:34;;;;;;;4.33;0.70;;;3.60;99.90;;;;;;4824619;29;20043;-89
2023/01/31 14:11:13;;;;;;;1.43;0.40;;;3.60;99.90;;;;;;4836417;29;20018;-87
2023/01/31 14:13:44;;;;;;;1.60;0.50;;;3.60;99.90;;;;;;4818933;29;20036;-88
2023/01/31 14:16:32;;;;;;;1.67;0.50;;;3.60;99.90;;;;;;4818279;29;20151;-89
2023/01/31 14:18:57;;;;;;;2.33;0.50;;;3.60;99.90;;;;;;4838048;29;20030;-89
2023/01/31 14:21:29;;;;;;;3.67;0.80;;;3.60;99.90;;;;;;4823138;29;20058;-88
2023/01/31 14:24:00;;;;;;;3.90;0.55;;;3.50;99.90;;;;;;4815159;29;20035;-88
2023/01/31 14:26:40;;;;;;;1.87;1.10;;;3.50;99.90;;;;;;4824715;29;20038;-89
2023/01/31 14:29:14;;;;;;;5.50;0.50;;;3.50;99.90;;;;;;4829661;29;20058;-88
2023/01/31 14:31:42;;;;;;;2.53;0.60;;;3.50;99.90;;;;;;4831040;29;20385;-88
2023/01/31 14:34:30;;;;;;;2.23;0.80;;;3.50;99.90;;;;;;4821475;29;20148;-89
2023/01/31 14:37:43;;;;;;;3.67;0.50;;;3.60;99.90;;;;;;4823020;29;20031;-88
2023/01/31 14:40:46;;;;;;;2.85;0.60;;;3.60;99.90;;;;;;4818018;29;20336;-89
2023/01/31 14:43:39;;;;;;;1.43;0.60;;;3.60;99.90;;;;;;4835360;29;20394;-89
2023/01/31 14:46:11;;;;;;;3.97;0.67;;;3.70;99.90;;;;;;4823002;29;20142;-89
2023/01/31 14:49:04;;;;;;;0.98;0.32;;;3.80;99.90;;;;;;4823971;29;20104;-89
2023/01/31 14:51:31;;;;;;;3.33;0.73;;;4.10;99.90;;;;;;4825863;29;20042;-89
2023/01/31 14:54:18;;;;;;;1.73;0.50;;;4.20;99.90;;;;;;4839487;29;20511;-89
2023/01/31 14:57:13;;;;;;;2.90;0.67;;;4.30;99.90;;;;;;4829434;29;20034;-89
2023/01/31 15:00:25;;;;;;;1.50;0.50;;;4.30;99.90;;;;;;4823893;29;20042;-90
2023/01/31 15:03:34;;;;;;;3.47;0.68;;;4.30;99.90;;;;;;4790544;29;20566;-89
2023/01/31 15:11:35;;;;;;;6.60;1.10;;;4.10;99.90;;;;;;659792;24;20444;-89
2023/01/31 15:14:28;;;;;;;2.53;0.60;;;4.10;99.90;;;;;;4841432;29;20046;-89
2023/01/31 15:17:08;;;;;;;3.07;0.70;;;3.90;99.90;;;;;;4837660;29;20445;-87
2023/01/31 15:20:08;;;;;;;4.63;0.77;;;3.80;99.90;;;;;;4843396;29;20531;-88
2023/01/31 15:22:40;;;;;;;2.80;0.70;;;4.60;99.90;;;;;;4847099;29;20040;-88
2023/01/31 15:25:32;;;;;;;1.75;0.50;;;3.70;99.90;;;;;;4839988;29;20026;-89
2023/01/31 15:27:59;;;;;;;;;;;4.30;99.90;;;;;;4840000;29;20038;-88
2023/01/31 15:30:32;;;;;;;2.93;0.70;;;3.80;99.90;;;;;;4838627;29;19916;-89
2023/01/31 15:33:25;;;;;;;1.73;0.70;;;3.70;99.90;;;;;;4841699;29;20021;-89
2023/01/31 15:36:04;;;;;;;1.63;0.67;;;3.70;99.90;;;;;;4837456;29;20037;-89
2023/01/31 15:39:02;;;;;;;3.70;1.07;;;3.70;99.90;;;;;;4841597;29;20030;-88
2023/01/31 16:16:33;;;;;;;2.73;0.30;;;3.80;99.90;;;;;;2258462;23;20519;-89
2023/01/31 16:19:29;;;;;;;6.27;1.30;;;3.80;99.90;;;;;;4843236;29;20026;-89
2023/01/31 16:22:53;;;;;;;;;;;;;;;;;;;;;
2023/01/31 16:25:24;;;;;;;2.30;0.63;;;3.70;99.90;;;;;;4841816;29;20048;-89
2023/01/31 16:28:01;;;;;;;2.90;0.70;;;3.60;99.90;;;;;;4842994;29;20634;-90
2023/01/31 16:30:30;;;;;;;3.00;0.60;;;4.40;99.90;;;;;;4852661;29;20042;-90
2023/01/31 16:33:03;;;;;;;2.57;0.70;;;4.40;99.90;;;;;;4846228;29;20030;-90
2023/01/31 16:39:19;;;;;;;2.73;0.50;;;4.10;99.90;;;;;;4850072;29;20049;-90
2023/01/31 17:12:55;;;;;;;2.53;0.83;;;3.80;99.90;;;;;;2733600;23;20046;-89
2023/01/31 17:23:53;;;;;;;2.10;0.87;;;3.80;99.90;;;;;;5662053;23;20062;-88
2023/01/31 17:26:54;;;;;;;3.53;0.70;;;3.90;99.90;;;;;;5000487;23;20058;-88
